« 警報 富山空港 2020/7/8 wed | トップページ | 鉄印帳の旅 その1 2020/7/12 sun »

2020/07/11

定点 富山空港 2020/7/11 sat

梅雨前線は上がったり、下がったりで雨が降ったり、急に暑くなったりで、変化が激しいです。が、今のところ水害は無く、穏やかな天候です。

RJNT 102317Z 24006KT 190V280 9999 -SHRA FEW010 SCT050 BKN070 25/22 Q1003 RMK 1CU010 3SC050 6AC070 A2964

20200711_rjnt_00syomyo

大雨警報が出ていますが、山岳地帯が範囲ですね。現在、称名瀑布は、四本の滝が見られます。

20200711_rjnt_01ja03an

まだまだ泥色の川面

20200711_rjnt_02ja03an

20200711_rjnt_03ja03an

ANA313 RJTT-RJNT JA03AN B737-781

20200711_rjnt_04ja03an

湿度が高く、雲が沸きます。

RJNT 110000Z 21006KT 9999 VCSH FEW010 BKN050 BKN070 26/24 Q1004

20200711_rjnt_05ja03an

中洲は生き延びてしまいました。

20200711_rjnt_06ja03an

ANA316 RJNT-RJTT JA03AN B737-781

RJNT 110100Z 31003KT 280V340 9999 VCSH FEW010 BKN060 BKN160 28/24 Q1003

20200711_rjnt_07ja17ac

さてーと思ったら、ドクヘリ事案。

20200711_rjnt_08ja17ac

サポートは火災保険号

20200711_rjnt_09ja17ac

現場手当で、へり搬送無し。

20200711_rjnt_10ja17ac

JA17AC A109SP SAK 富山県ドクターヘリ

###

 

###

20200711_rjnt_11ja6502

JA6502↓ AS350B3 AKF

昨日、能登でGTBした JA74AN は、お昼に東京にフェリーされました。

 

|

« 警報 富山空港 2020/7/8 wed | トップページ | 鉄印帳の旅 その1 2020/7/12 sun »

富山空港」カテゴリの記事

場外」カテゴリの記事

警務消防」カテゴリの記事

コメント

コメントを書く



(ウェブ上には掲載しません)


コメントは記事投稿者が公開するまで表示されません。



« 警報 富山空港 2020/7/8 wed | トップページ | 鉄印帳の旅 その1 2020/7/12 sun »